Time;durP1;ratioP1;P1;durP2;ratioP2;P2;SDS_P1;SDS_P2;PMS_P1;PMS_P2;Temp;Humidity;BMP_temperature;BMP_pressure;BME280_temperature;BME280_humidity;BME280_pressure;Samples;Min_cycle;Max_cycle;Signal;HPM_P1;HPM_P2
2022/09/10 00:01:20;;;;;;;4.82;0.60;;;17.20;99.90;;;;;;5050812;28;20103;-76
2022/09/10 00:03:48;;;;;;;2.35;0.60;;;17.20;99.90;;;;;;5067509;28;20072;-76
2022/09/10 00:06:15;;;;;;;1.33;0.63;;;17.30;99.90;;;;;;5051516;28;20406;-76
2022/09/10 00:08:41;;;;;;;4.45;0.65;;;17.20;99.90;;;;;;5051973;28;20139;-75
2022/09/10 00:11:11;;;;;;;1.55;0.68;;;17.20;99.90;;;;;;5052422;28;20055;-76
2022/09/10 00:13:39;;;;;;;1.23;0.70;;;17.20;99.90;;;;;;5051964;28;20040;-76
2022/09/10 00:16:13;;;;;;;2.67;1.05;;;17.20;99.90;;;;;;5051769;28;20029;-76
2022/09/10 00:18:40;;;;;;;1.05;0.50;;;17.20;99.90;;;;;;5051872;28;20058;-76
2022/09/10 00:21:18;;;;;;;1.55;0.85;;;17.20;99.90;;;;;;5051863;28;20090;-75
2022/09/10 00:23:44;;;;;;;2.22;0.95;;;17.20;99.90;;;;;;5051690;28;20055;-75
2022/09/10 00:26:17;;;;;;;1.95;0.38;;;17.20;99.90;;;;;;5052013;28;20025;-75
2022/09/10 00:28:44;;;;;;;4.15;0.70;;;17.20;99.90;;;;;;5052157;28;20033;-75
2022/09/10 00:31:13;;;;;;;0.55;0.43;;;17.20;99.90;;;;;;5051790;28;20032;-75
2022/09/10 00:33:40;;;;;;;2.67;0.45;;;17.20;99.90;;;;;;5067099;28;20421;-74
2022/09/10 00:36:18;;;;;;;2.22;0.70;;;17.20;99.90;;;;;;5051358;28;20029;-74
2022/09/10 00:38:44;;;;;;;1.40;0.60;;;17.20;99.90;;;;;;5051212;28;20100;-74
2022/09/10 00:41:18;;;;;;;2.67;0.70;;;17.20;99.90;;;;;;5051786;28;20466;-73
2022/09/10 00:43:53;;;;;;;2.28;0.60;;;17.30;99.90;;;;;;5051211;28;20427;-74
2022/09/10 00:46:24;;;;;;;3.70;0.90;;;17.30;99.90;;;;;;5051205;28;20428;-73
2022/09/10 00:48:53;;;;;;;3.45;0.65;;;17.30;99.90;;;;;;5050047;28;20040;-75
2022/09/10 00:51:18;;;;;;;;;;;17.30;99.90;;;;;;5051463;28;20040;-75
2022/09/10 00:53:45;;;;;;;1.33;0.60;;;17.30;99.90;;;;;;5051296;28;19913;-75
2022/09/10 00:56:16;;;;;;;3.00;1.10;;;17.30;99.90;;;;;;5050245;28;20103;-75
2022/09/10 00:58:44;;;;;;;4.85;1.23;;;17.20;99.90;;;;;;5051287;28;20060;-74
2022/09/10 01:01:13;;;;;;;4.72;1.60;;;17.20;99.90;;;;;;5050969;28;20079;-75
2022/09/10 01:03:41;;;;;;;1.88;0.90;;;17.20;99.90;;;;;;5050767;28;20487;-74
2022/09/10 01:06:17;;;;;;;2.47;1.13;;;17.10;99.90;;;;;;5050843;28;20434;-75
2022/09/10 01:08:42;;;;;;;4.63;1.27;;;17.20;99.90;;;;;;5050719;28;22685;-76
2022/09/10 01:11:30;;;;;;;1.70;0.90;;;17.20;99.90;;;;;;5050030;28;20465;-76
2022/09/10 01:13:56;;;;;;;2.92;1.15;;;17.20;99.90;;;;;;5050984;28;20489;-75
2022/09/10 01:16:47;;;;;;;2.20;0.70;;;17.20;99.90;;;;;;5049593;28;20033;-74
2022/09/10 01:19:28;;;;;;;3.60;0.77;;;17.20;99.90;;;;;;5049755;28;20087;-75
2022/09/10 01:22:05;;;;;;;1.88;0.90;;;17.20;99.90;;;;;;5050714;28;20040;-76
2022/09/10 01:24:53;;;;;;;1.63;0.88;;;17.20;99.90;;;;;;5050312;28;20641;-75
2022/09/10 01:27:36;;;;;;;1.48;0.63;;;17.20;99.90;;;;;;5050453;28;20414;-75
2022/09/10 01:30:13;;;;;;;1.98;0.82;;;17.20;99.90;;;;;;5050569;28;20092;-75
2022/09/10 01:32:57;;;;;;;3.33;0.88;;;17.20;99.90;;;;;;5050474;28;20548;-74
2022/09/10 01:35:27;;;;;;;2.10;0.88;;;17.20;99.90;;;;;;5054848;28;20040;-74
2022/09/10 01:37:57;;;;;;;3.08;0.88;;;17.20;99.90;;;;;;5051414;28;20032;-75
2022/09/10 01:40:28;;;;;;;4.20;0.80;;;17.10;99.90;;;;;;5049193;28;20198;-75
2022/09/10 01:43:01;;;;;;;3.28;0.70;;;17.20;99.90;;;;;;5049129;28;20521;-76
2022/09/10 01:45:28;;;;;;;3.58;0.80;;;17.10;99.90;;;;;;5050230;28;20094;-75
2022/09/10 01:48:21;;;;;;;4.00;0.73;;;17.20;99.90;;;;;;5054608;28;20051;-76
2022/09/10 01:51:16;;;;;;;2.00;0.65;;;17.20;99.90;;;;;;5070376;28;20041;-76
2022/09/10 01:53:59;;;;;;;3.17;0.70;;;17.20;99.90;;;;;;5013517;28;20535;-76
2022/09/10 01:56:41;;;;;;;3.90;0.88;;;17.20;99.90;;;;;;5050735;28;20036;-74
2022/09/10 01:59:22;;;;;;;3.92;0.90;;;17.20;99.90;;;;;;5050780;28;20111;-75
2022/09/10 02:01:57;;;;;;;5.00;0.60;;;17.10;99.90;;;;;;5050195;28;20052;-74
2022/09/10 02:04:24;;;;;;;3.97;0.85;;;17.10;99.90;;;;;;5050474;28;20421;-75
2022/09/10 02:06:50;;;;;;;3.20;1.00;;;17.10;99.90;;;;;;5050401;28;20029;-75
2022/09/10 02:09:18;;;;;;;1.70;0.60;;;17.10;99.90;;;;;;5049183;28;20432;-75
2022/09/10 02:11:47;;;;;;;3.17;1.05;;;17.10;99.90;;;;;;5065931;28;20037;-76
2022/09/10 02:14:14;;;;;;;3.20;1.08;;;17.10;99.90;;;;;;5050858;28;20029;-76
2022/09/10 02:16:44;;;;;;;1.15;0.60;;;17.10;99.90;;;;;;5032647;28;20032;-74
2022/09/10 02:19:10;;;;;;;2.60;0.90;;;17.10;99.90;;;;;;5050113;28;20116;-75
2022/09/10 02:21:36;;;;;;;4.68;0.93;;;17.00;99.90;;;;;;5050156;28;20136;-75
2022/09/10 02:24:09;;;;;;;8.15;1.15;;;17.00;99.90;;;;;;5049821;28;20043;-75
2022/09/10 02:26:38;;;;;;;2.55;0.93;;;17.00;99.90;;;;;;5049953;28;20032;-75
2022/09/10 02:29:05;;;;;;;4.45;0.77;;;17.10;99.90;;;;;;5032878;28;20021;-74
2022/09/10 02:31:31;;;;;;;6.70;0.88;;;17.00;99.90;;;;;;5053347;28;20125;-74
2022/09/10 02:33:57;;;;;;;3.10;0.80;;;17.00;99.90;;;;;;5053689;28;20445;-76
2022/09/10 02:36:24;;;;;;;2.47;0.77;;;17.00;99.90;;;;;;5035830;28;20036;-75
2022/09/10 02:38:51;;;;;;;0.87;0.50;;;17.00;99.90;;;;;;5053840;28;20363;-76
2022/09/10 02:41:17;;;;;;;1.80;0.70;;;17.00;99.90;;;;;;5053788;28;20025;-75
2022/09/10 02:43:44;;;;;;;6.45;0.70;;;17.00;99.90;;;;;;5054076;28;20025;-75
2022/09/10 02:46:11;;;;;;;2.67;0.80;;;17.10;99.90;;;;;;5053483;28;20660;-75
2022/09/10 02:48:38;;;;;;;1.27;0.70;;;17.10;99.90;;;;;;5052293;28;20033;-75
2022/09/10 02:51:06;;;;;;;3.63;1.15;;;17.00;99.90;;;;;;5053455;28;20065;-75
2022/09/10 02:53:34;;;;;;;4.60;1.00;;;17.00;99.90;;;;;;5053467;28;20104;-74
2022/09/10 02:56:01;;;;;;;2.20;0.90;;;17.00;99.90;;;;;;5052997;28;20406;-75
2022/09/10 02:58:32;;;;;;;3.95;1.73;;;17.10;99.90;;;;;;5053304;28;20477;-75
2022/09/10 03:01:13;;;;;;;3.80;1.40;;;17.00;99.90;;;;;;5052291;28;20044;-73
2022/09/10 03:03:40;;;;;;;6.22;1.13;;;17.00;99.90;;;;;;5053087;28;20278;-75
2022/09/10 03:06:09;;;;;;;2.08;0.73;;;17.10;99.90;;;;;;5052996;28;20379;-75
2022/09/10 03:08:35;;;;;;;3.30;0.95;;;17.00;99.90;;;;;;5053022;28;20033;-73
2022/09/10 03:11:00;;;;;;;3.30;1.15;;;17.10;99.90;;;;;;5053515;28;20021;-76
2022/09/10 03:13:27;;;;;;;2.55;0.52;;;17.10;99.90;;;;;;5053482;28;20040;-74
2022/09/10 03:15:54;;;;;;;1.33;0.80;;;17.10;99.90;;;;;;5052881;28;20112;-74
2022/09/10 03:18:21;;;;;;;2.38;0.70;;;17.10;99.90;;;;;;5052800;28;20467;-76
2022/09/10 03:20:48;;;;;;;5.20;1.13;;;17.20;99.90;;;;;;5053035;28;20105;-74
2022/09/10 03:23:13;;;;;;;4.10;0.65;;;17.20;99.90;;;;;;5053137;28;20056;-74
2022/09/10 03:25:39;;;;;;;1.35;0.80;;;17.20;99.90;;;;;;5052688;28;20121;-73
2022/09/10 03:28:05;;;;;;;2.65;1.05;;;17.20;99.90;;;;;;5052653;28;20021;-73
2022/09/10 03:30:31;;;;;;;2.90;1.08;;;17.10;99.90;;;;;;5052677;28;20033;-73
2022/09/10 03:32:57;;;;;;;1.65;1.00;;;17.10;99.90;;;;;;5052199;28;20025;-73
2022/09/10 03:35:23;;;;;;;2.72;0.80;;;17.10;99.90;;;;;;5052680;28;20458;-74
2022/09/10 03:37:49;;;;;;;2.08;0.90;;;17.20;99.90;;;;;;5052974;28;20021;-74
2022/09/10 03:40:14;;;;;;;2.40;1.00;;;17.10;99.90;;;;;;5052564;28;20044;-74
2022/09/10 03:42:41;;;;;;;3.50;0.88;;;17.10;99.90;;;;;;5051332;28;20459;-73
2022/09/10 03:45:07;;;;;;;5.93;1.48;;;17.10;99.90;;;;;;5052130;28;20250;-75
2022/09/10 03:47:36;;;;;;;5.13;1.10;;;17.00;99.90;;;;;;5052576;28;20053;-74
2022/09/10 03:50:03;;;;;;;3.45;1.00;;;17.00;99.90;;;;;;5053263;28;20024;-74
2022/09/10 03:52:29;;;;;;;2.53;0.88;;;17.00;99.90;;;;;;5051231;28;20029;-74
2022/09/10 03:54:55;;;;;;;6.70;1.63;;;17.00;99.90;;;;;;5052298;28;20028;-74
2022/09/10 03:57:22;;;;;;;4.20;1.20;;;17.00;99.90;;;;;;5052245;28;20112;-75
2022/09/10 03:59:48;;;;;;;6.85;1.33;;;16.90;99.90;;;;;;5051966;28;20535;-74
2022/09/10 04:02:15;;;;;;;4.38;1.17;;;16.90;99.90;;;;;;5051330;28;20040;-74
2022/09/10 04:04:41;;;;;;;4.45;1.15;;;16.90;99.90;;;;;;5050711;28;20033;-75
2022/09/10 04:07:09;;;;;;;6.15;1.55;;;16.90;99.90;;;;;;5034394;28;20029;-75
2022/09/10 04:09:35;;;;;;;2.95;0.98;;;16.90;99.90;;;;;;5051908;28;20061;-75
2022/09/10 04:12:02;;;;;;;2.70;1.00;;;16.90;99.90;;;;;;5051753;28;20060;-73
2022/09/10 04:14:28;;;;;;;3.80;1.35;;;16.90;99.90;;;;;;5051723;28;20128;-73
2022/09/10 04:16:56;;;;;;;1.98;1.27;;;16.90;99.90;;;;;;5052143;28;20351;-75
2022/09/10 04:19:22;;;;;;;4.57;1.50;;;16.90;99.90;;;;;;5051647;28;20056;-75
2022/09/10 04:21:47;;;;;;;5.72;1.20;;;16.90;99.90;;;;;;5050382;28;20036;-74
2022/09/10 04:24:13;;;;;;;4.47;1.30;;;16.80;99.90;;;;;;5051590;28;20044;-75
2022/09/10 04:26:39;;;;;;;6.43;1.60;;;16.80;99.90;;;;;;5051716;28;20466;-75
2022/09/10 04:29:04;;;;;;;15.57;1.90;;;16.80;99.90;;;;;;5052133;28;20021;-75
2022/09/10 04:31:30;;;;;;;2.35;1.40;;;16.80;99.90;;;;;;5051304;28;20031;-75
2022/09/10 04:33:56;;;;;;;3.97;1.40;;;16.90;99.90;;;;;;5051309;28;20103;-75
2022/09/10 04:36:22;;;;;;;4.20;1.33;;;16.90;99.90;;;;;;5051366;28;20037;-74
2022/09/10 04:38:47;;;;;;;4.93;1.33;;;16.90;99.90;;;;;;5051200;28;20036;-74
2022/09/10 04:41:14;;;;;;;7.40;1.33;;;16.80;99.90;;;;;;5051749;28;20527;-74
2022/09/10 04:43:40;;;;;;;4.53;1.48;;;16.80;99.90;;;;;;5050171;28;20578;-74
2022/09/10 04:46:08;;;;;;;5.28;1.60;;;16.90;99.90;;;;;;5051151;28;20100;-74
2022/09/10 04:48:34;;;;;;;4.13;1.90;;;16.90;99.90;;;;;;5050108;28;20036;-74
2022/09/10 04:50:59;;;;;;;4.22;1.92;;;16.80;99.90;;;;;;5050942;28;20089;-74
2022/09/10 04:53:30;;;;;;;5.32;1.70;;;16.80;99.90;;;;;;5050854;28;20028;-74
2022/09/10 04:55:55;;;;;;;5.30;1.90;;;16.80;99.90;;;;;;5067231;28;20021;-74
2022/09/10 04:58:22;;;;;;;5.10;1.75;;;16.80;99.90;;;;;;5050063;28;20036;-74
2022/09/10 05:00:47;;;;;;;13.00;5.68;;;16.80;99.90;;;;;;5050480;28;20055;-74
2022/09/10 05:03:13;;;;;;;9.60;5.40;;;16.80;99.90;;;;;;5050822;28;20036;-74
2022/09/10 05:05:41;;;;;;;5.35;2.53;;;16.80;99.90;;;;;;5066681;28;20043;-75
2022/09/10 05:08:07;;;;;;;10.00;4.13;;;16.80;99.90;;;;;;5051430;28;20024;-75
2022/09/10 05:10:35;;;;;;;5.75;3.42;;;16.80;99.90;;;;;;5049835;28;20405;-74
2022/09/10 05:13:01;;;;;;;4.05;2.35;;;16.80;99.90;;;;;;5049775;28;20498;-73
2022/09/10 05:15:27;;;;;;;4.47;1.30;;;16.80;99.90;;;;;;5050739;28;20051;-75
2022/09/10 05:17:52;;;;;;;3.50;1.33;;;16.80;99.90;;;;;;5050727;28;20286;-75
2022/09/10 05:20:18;;;;;;;4.50;1.67;;;16.80;99.90;;;;;;5051424;28;20040;-75
2022/09/10 05:22:44;;;;;;;2.67;1.33;;;16.80;99.90;;;;;;5052446;28;20037;-75
2022/09/10 05:25:10;;;;;;;6.18;1.55;;;16.80;99.90;;;;;;5055025;28;20348;-74
2022/09/10 05:27:36;;;;;;;3.58;1.42;;;16.80;99.90;;;;;;5052645;28;20115;-74
2022/09/10 05:30:01;;;;;;;4.13;1.45;;;16.80;99.90;;;;;;5050825;28;20571;-74
2022/09/10 05:32:28;;;;;;;1.85;1.13;;;16.80;99.90;;;;;;5049735;28;20119;-74
2022/09/10 05:34:54;;;;;;;2.35;1.20;;;16.80;99.90;;;;;;5051411;28;20025;-75
2022/09/10 05:37:20;;;;;;;4.63;1.60;;;16.70;99.90;;;;;;5050481;28;20033;-75
2022/09/10 05:39:47;;;;;;;4.18;1.40;;;16.70;99.90;;;;;;5055378;28;20097;-72
2022/09/10 05:42:13;;;;;;;4.63;1.40;;;16.70;99.90;;;;;;5053178;28;20040;-74
2022/09/10 05:44:40;;;;;;;8.25;4.60;;;16.80;99.90;;;;;;5051818;28;20047;-74
2022/09/10 05:47:06;;;;;;;8.23;4.18;;;16.80;99.90;;;;;;5049039;28;20021;-74
2022/09/10 05:49:32;;;;;;;2.80;1.65;;;16.80;99.90;;;;;;5035558;28;20037;-75
2022/09/10 05:51:58;;;;;;;4.43;1.50;;;16.80;99.90;;;;;;5050617;28;20056;-75
2022/09/10 05:54:24;;;;;;;6.95;1.60;;;16.80;99.90;;;;;;5059255;28;20415;-75
2022/09/10 05:56:50;;;;;;;2.47;1.10;;;16.80;99.90;;;;;;5066858;28;20037;-78
2022/09/10 05:59:15;;;;;;;3.08;1.65;;;16.80;99.90;;;;;;5033640;28;20439;-73
2022/09/10 06:01:41;;;;;;;2.92;1.20;;;16.90;99.90;;;;;;5050380;28;20056;-80
2022/09/10 06:04:07;;;;;;;2.25;1.33;;;16.90;99.90;;;;;;5064831;28;20154;-79
2022/09/10 06:06:33;;;;;;;8.80;1.77;;;16.90;99.90;;;;;;5065427;28;20041;-78
2022/09/10 06:08:59;;;;;;;5.68;2.10;;;16.90;99.90;;;;;;5059881;28;20350;-76
2022/09/10 06:11:24;;;;;;;7.93;4.47;;;17.00;99.90;;;;;;5074472;28;20036;-77
2022/09/10 06:13:50;;;;;;;3.88;2.20;;;17.00;99.90;;;;;;5037395;28;20029;-78
2022/09/10 06:16:16;;;;;;;3.33;1.33;;;17.00;99.90;;;;;;5052670;28;20021;-77
2022/09/10 06:18:43;;;;;;;2.63;1.33;;;17.00;99.90;;;;;;5063675;28;20041;-77
2022/09/10 06:21:14;;;;;;;4.03;1.58;;;17.00;99.90;;;;;;5060663;28;20036;-74
2022/09/10 06:23:41;;;;;;;5.13;1.45;;;17.00;99.90;;;;;;5071740;28;20020;-74
2022/09/10 06:26:18;;;;;;;2.85;1.23;;;17.10;99.90;;;;;;5054950;28;20055;-76
2022/09/10 06:28:45;;;;;;;3.97;1.20;;;17.10;99.90;;;;;;5074797;28;20032;-79
2022/09/10 06:31:15;;;;;;;3.38;1.48;;;17.10;99.90;;;;;;5056292;28;20029;-74
2022/09/10 06:33:42;;;;;;;5.10;1.40;;;17.10;99.90;;;;;;5044993;28;20045;-74
2022/09/10 06:36:10;;;;;;;8.20;1.58;;;17.10;99.90;;;;;;5054134;28;20126;-75
2022/09/10 06:38:36;;;;;;;2.67;1.30;;;17.00;99.90;;;;;;5054417;28;20394;-76
2022/09/10 06:41:10;;;;;;;2.13;1.40;;;17.00;99.90;;;;;;5054848;28;20464;-77
2022/09/10 06:43:37;;;;;;;7.10;1.50;;;17.00;99.90;;;;;;5054124;28;20021;-76
2022/09/10 06:46:29;;;;;;;5.20;1.73;;;17.00;99.90;;;;;;5053978;28;20048;-74
2022/09/10 06:48:59;;;;;;;6.13;1.70;;;17.10;99.90;;;;;;5050156;28;20025;-75
2022/09/10 06:51:25;;;;;;;3.63;1.42;;;17.10;99.90;;;;;;5054276;28;20109;-75
2022/09/10 06:53:51;;;;;;;3.20;1.33;;;17.20;99.90;;;;;;5053907;28;20063;-77
2022/09/10 06:56:17;;;;;;;1.45;1.23;;;17.20;99.90;;;;;;5069856;28;20447;-75
2022/09/10 06:58:43;;;;;;;5.50;1.80;;;17.10;99.90;;;;;;5053709;28;20025;-75
2022/09/10 07:01:17;;;;;;;6.22;2.17;;;17.10;99.90;;;;;;5053427;28;20040;-76
2022/09/10 07:03:43;;;;;;;4.43;1.80;;;17.20;99.90;;;;;;5053367;28;20048;-76
2022/09/10 07:06:16;;;;;;;4.03;1.58;;;17.20;99.90;;;;;;5053486;28;20036;-75
2022/09/10 07:08:43;;;;;;;2.75;1.52;;;17.20;99.90;;;;;;5053744;28;20021;-75
2022/09/10 07:11:25;;;;;;;3.38;1.65;;;17.20;99.90;;;;;;5054029;28;20134;-75
2022/09/10 07:13:52;;;;;;;3.95;1.52;;;17.30;99.90;;;;;;5069566;28;20033;-77
2022/09/10 07:16:22;;;;;;;4.97;1.90;;;17.30;99.90;;;;;;5052136;28;20173;-76
2022/09/10 07:18:50;;;;;;;4.43;1.40;;;17.30;99.90;;;;;;5053166;28;20037;-76
2022/09/10 07:21:26;;;;;;;10.25;2.08;;;17.40;99.90;;;;;;5051901;28;20479;-73
2022/09/10 07:24:00;;;;;;;4.57;1.67;;;17.40;99.90;;;;;;5052499;28;20502;-72
2022/09/10 07:26:25;;;;;;;2.78;1.42;;;17.50;99.90;;;;;;5052408;28;20518;-72
2022/09/10 07:28:52;;;;;;;3.13;1.20;;;17.50;99.90;;;;;;5070670;28;20351;-73
2022/09/10 07:31:20;;;;;;;3.83;1.80;;;17.50;99.90;;;;;;5052568;28;20052;-72
2022/09/10 07:33:47;;;;;;;4.13;1.60;;;17.60;99.90;;;;;;5052557;28;20082;-74
2022/09/10 07:36:16;;;;;;;3.00;1.08;;;17.70;99.90;;;;;;5052410;28;20037;-74
2022/09/10 07:38:42;;;;;;;2.95;1.23;;;17.60;99.90;;;;;;5051783;28;20451;-73
2022/09/10 07:41:17;;;;;;;2.97;1.35;;;17.70;99.90;;;;;;5052623;28;20029;-74
2022/09/10 07:43:43;;;;;;;6.35;1.25;;;17.70;99.90;;;;;;5052831;28;20033;-72
2022/09/10 07:46:20;;;;;;;2.45;1.00;;;17.80;99.90;;;;;;5052042;28;20094;-73
2022/09/10 07:48:57;;;;;;;2.83;1.05;;;17.80;99.90;;;;;;5052290;28;20479;-74
2022/09/10 07:51:24;;;;;;;8.37;1.43;;;17.80;99.90;;;;;;5052328;28;20471;-74
2022/09/10 07:53:55;;;;;;;6.15;1.55;;;17.90;99.90;;;;;;5052179;28;20057;-73
2022/09/10 07:56:22;;;;;;;3.03;1.23;;;17.90;99.90;;;;;;5052761;28;20064;-73
2022/09/10 07:58:48;;;;;;;9.02;1.55;;;17.90;99.90;;;;;;5052139;28;20423;-73
2022/09/10 08:01:22;;;;;;;2.58;1.30;;;18.00;99.90;;;;;;5051601;28;20029;-73
2022/09/10 08:03:48;;;;;;;4.00;1.10;;;18.00;99.90;;;;;;5050757;28;20260;-73
2022/09/10 08:06:23;;;;;;;3.58;1.02;;;18.10;99.90;;;;;;5050557;28;20060;-73
2022/09/10 08:08:49;;;;;;;4.25;1.48;;;18.10;99.90;;;;;;5051559;28;20465;-73
2022/09/10 08:11:21;;;;;;;2.38;0.93;;;18.10;99.90;;;;;;5052010;28;20281;-73
2022/09/10 08:13:48;;;;;;;4.93;1.42;;;18.20;99.90;;;;;;5051652;28;20422;-74
2022/09/10 08:16:25;;;;;;;5.18;1.67;;;18.30;99.90;;;;;;5051661;28;20029;-74
2022/09/10 08:18:55;;;;;;;3.67;1.00;;;18.30;99.90;;;;;;5051573;28;20567;-74
2022/09/10 08:21:21;;;;;;;3.78;1.00;;;18.60;99.90;;;;;;5051467;28;20321;-73
2022/09/10 08:23:52;;;;;;;6.50;1.10;;;19.50;99.90;;;;;;5051400;28;20134;-76
2022/09/10 08:26:22;;;;;;;7.50;1.02;;;20.80;99.90;;;;;;5051862;28;20040;-75
2022/09/10 08:28:52;;;;;;;1.83;0.75;;;21.90;99.90;;;;;;5051072;28;20124;-73
2022/09/10 08:31:27;;;;;;;2.42;0.93;;;23.10;99.10;;;;;;5051360;28;20045;-74
2022/09/10 08:33:54;;;;;;;3.25;0.82;;;24.20;97.40;;;;;;5051150;28;20431;-74
2022/09/10 08:36:24;;;;;;;2.25;1.10;;;24.50;95.10;;;;;;5051310;28;20079;-74
2022/09/10 08:38:50;;;;;;;7.35;2.70;;;25.30;94.70;;;;;;5051207;28;20036;-74
2022/09/10 08:41:37;;;;;;;5.78;1.17;;;25.90;92.50;;;;;;5051358;28;20522;-74
2022/09/10 08:44:09;;;;;;;3.17;1.20;;;26.10;91.40;;;;;;5051056;28;20029;-74
2022/09/10 08:46:48;;;;;;;4.20;0.85;;;26.00;91.70;;;;;;5050873;28;20033;-74
2022/09/10 08:49:36;;;;;;;1.80;0.82;;;26.80;91.70;;;;;;5051030;28;20041;-74
2022/09/10 08:52:37;;;;;;;6.53;1.40;;;27.00;89.80;;;;;;5050006;28;20041;-75
2022/09/10 08:55:21;;;;;;;4.53;0.88;;;26.10;89.40;;;;;;5049295;28;20029;-75
2022/09/10 08:58:09;;;;;;;4.28;1.55;;;25.30;90.00;;;;;;5049740;28;20036;-73
2022/09/10 09:00:38;;;;;;;4.93;1.35;;;24.80;90.90;;;;;;5050777;28;20029;-73
2022/09/10 09:03:31;;;;;;;4.47;0.88;;;24.50;91.10;;;;;;5050645;28;20391;-73
2022/09/10 09:06:01;;;;;;;4.80;1.17;;;24.40;91.50;;;;;;5050774;28;20447;-74
2022/09/10 09:08:34;;;;;;;4.35;1.10;;;24.40;90.60;;;;;;5051025;28;20102;-74
2022/09/10 09:11:21;;;;;;;4.10;0.80;;;25.10;91.40;;;;;;5051246;28;20025;-73
2022/09/10 09:13:56;;;;;;;;;;;26.00;90.60;;;;;;5050929;28;20028;-73
2022/09/10 09:16:52;;;;;;;2.28;0.73;;;25.60;89.20;;;;;;5050522;28;19919;-73
2022/09/10 09:19:57;;;;;;;4.32;0.70;;;25.00;89.30;;;;;;5049483;28;20366;-73
2022/09/10 09:23:01;;;;;;;3.10;0.60;;;24.00;90.10;;;;;;5050006;28;20547;-73
2022/09/10 09:25:32;;;;;;;2.45;0.70;;;23.90;90.50;;;;;;5049489;28;20044;-74
2022/09/10 09:27:58;;;;;;;4.75;0.90;;;23.50;91.10;;;;;;5050619;28;20367;-74
2022/09/10 09:30:34;;;;;;;4.57;0.90;;;23.30;91.80;;;;;;5049261;28;20029;-74
2022/09/10 09:33:12;;;;;;;2.38;1.23;;;23.10;92.00;;;;;;5049129;28;20039;-76
2022/09/10 09:35:47;;;;;;;3.13;1.52;;;23.00;92.50;;;;;;5050222;28;20426;-74
2022/09/10 09:38:31;;;;;;;4.43;1.17;;;22.80;92.60;;;;;;5049507;28;20068;-73
2022/09/10 09:41:24;;;;;;;2.38;1.00;;;22.90;92.30;;;;;;5049456;28;20037;-73
2022/09/10 09:44:04;;;;;;;2.85;0.80;;;22.80;92.20;;;;;;5050218;28;20466;-72
2022/09/10 09:46:30;;;;;;;3.65;0.77;;;22.70;92.50;;;;;;5050127;28;20040;-73
2022/09/10 09:49:00;;;;;;;2.53;0.55;;;22.60;92.60;;;;;;5050134;28;20037;-72
2022/09/10 09:51:34;;;;;;;3.80;0.95;;;22.40;92.50;;;;;;5049996;28;20037;-74
2022/09/10 09:54:08;;;;;;;3.20;0.82;;;22.40;92.60;;;;;;5050238;28;20088;-74
2022/09/10 09:56:41;;;;;;;2.78;0.70;;;22.40;92.80;;;;;;5050216;28;20036;-73
2022/09/10 09:59:27;;;;;;;1.63;0.68;;;22.50;92.80;;;;;;5050628;28;20025;-73
2022/09/10 10:01:56;;;;;;;3.03;0.80;;;22.40;92.90;;;;;;5048876;28;20060;-74
2022/09/10 10:04:29;;;;;;;2.75;0.82;;;22.50;93.30;;;;;;5049097;28;20059;-74
2022/09/10 10:06:57;;;;;;;3.78;0.70;;;22.40;93.30;;;;;;5050012;28;20069;-73
2022/09/10 10:09:27;;;;;;;1.55;0.75;;;22.40;93.20;;;;;;5050005;28;20115;-73
2022/09/10 10:11:59;;;;;;;3.35;0.45;;;22.40;93.40;;;;;;5048818;28;20037;-74
2022/09/10 10:14:30;;;;;;;3.03;0.88;;;22.50;93.00;;;;;;5049910;28;20091;-72
2022/09/10 10:16:59;;;;;;;4.22;0.73;;;22.70;92.80;;;;;;5049467;28;20032;-74
2022/09/10 10:19:35;;;;;;;3.75;1.27;;;22.80;92.40;;;;;;5049882;28;20033;-72
2022/09/10 10:22:13;;;;;;;2.40;0.82;;;23.00;92.50;;;;;;5048654;28;20025;-73
2022/09/10 10:24:41;;;;;;;4.00;1.30;;;23.80;92.80;;;;;;5049583;28;20422;-74
2022/09/10 10:27:34;;;;;;;11.60;8.13;;;25.00;92.40;;;;;;5049784;28;20029;-74
2022/09/10 10:30:01;;;;;;;5.68;1.55;;;25.90;92.00;;;;;;5047977;28;20412;-75
2022/09/10 10:32:32;;;;;;;5.50;0.95;;;27.40;86.70;;;;;;5049917;28;20020;-77
2022/09/10 10:35:18;;;;;;;10.10;5.82;;;27.50;79.80;;;;;;5050497;28;20025;-75
2022/09/10 10:38:02;;;;;;;3.75;0.90;;;28.30;80.70;;;;;;5048478;28;20036;-76
2022/09/10 10:40:44;;;;;;;2.83;0.93;;;29.30;80.20;;;;;;5049875;28;20059;-76
2022/09/10 10:43:47;;;;;;;1.23;0.50;;;29.20;75.30;;;;;;5049696;28;20044;-76
2022/09/10 10:46:33;;;;;;;1.40;0.60;;;29.20;71.40;;;;;;5049640;28;20037;-76
2022/09/10 10:49:10;;;;;;;3.88;0.55;;;28.20;74.10;;;;;;5049528;28;20040;-75
2022/09/10 10:51:45;;;;;;;2.17;0.60;;;27.80;76.20;;;;;;5051480;28;20032;-74
2022/09/10 10:54:30;;;;;;;2.83;0.85;;;27.20;76.60;;;;;;5053240;28;20041;-75
2022/09/10 10:57:27;;;;;;;1.05;0.40;;;27.10;74.70;;;;;;5052147;28;20033;-74
2022/09/10 11:00:06;;;;;;;1.42;0.47;;;27.80;75.70;;;;;;5052194;28;20048;-74
2022/09/10 11:02:53;;;;;;;1.63;0.50;;;27.80;74.70;;;;;;5052924;28;20076;-74
2022/09/10 11:05:24;;;;;;;1.13;0.60;;;27.60;72.80;;;;;;5052347;28;20033;-76
2022/09/10 11:07:51;;;;;;;0.95;0.60;;;26.90;72.30;;;;;;5053285;28;20040;-75
2022/09/10 11:10:28;;;;;;;3.50;0.68;;;26.50;74.40;;;;;;5052890;28;20403;-75
2022/09/10 11:13:05;;;;;;;2.03;0.50;;;26.40;75.40;;;;;;5052689;28;20094;-74
2022/09/10 11:15:47;;;;;;;2.67;0.70;;;26.70;76.30;;;;;;5052901;28;20061;-76
2022/09/10 11:18:27;;;;;;;0.70;0.55;;;27.70;75.20;;;;;;5052631;28;20080;-76
2022/09/10 11:21:45;;;;;;;5.75;0.73;;;27.80;73.40;;;;;;5052754;28;20028;-75
2022/09/10 11:24:32;;;;;;;2.28;0.50;;;28.20;72.00;;;;;;5051476;28;20044;-75
2022/09/10 11:27:19;;;;;;;1.50;0.40;;;27.70;74.40;;;;;;5052527;28;20048;-75
2022/09/10 11:30:18;;;;;;;0.57;0.30;;;27.20;73.60;;;;;;5052674;28;20047;-75
2022/09/10 11:32:49;;;;;;;2.03;1.00;;;27.70;74.80;;;;;;5048807;28;20102;-74
2022/09/10 11:35:36;;;;;;;2.92;0.95;;;27.50;73.30;;;;;;5053274;28;20031;-74
2022/09/10 11:38:22;;;;;;;;;;;27.30;75.20;;;;;;5053422;28;20037;-75
2022/09/10 11:41:05;;;;;;;1.77;0.63;;;26.70;74.00;;;;;;5052848;28;19920;-75
2022/09/10 11:43:48;;;;;;;1.58;0.60;;;26.20;75.60;;;;;;5052338;28;20033;-74
2022/09/10 11:46:42;;;;;;;2.13;0.60;;;25.50;76.40;;;;;;5052183;28;20041;-73
2022/09/10 11:49:21;;;;;;;1.33;0.70;;;25.70;76.80;;;;;;5052266;28;20040;-75
2022/09/10 11:51:48;;;;;;;1.75;0.47;;;25.90;76.70;;;;;;5052174;28;20039;-73
2022/09/10 11:54:17;;;;;;;1.67;0.47;;;25.40;75.50;;;;;;5052032;28;20040;-74
2022/09/10 11:57:14;;;;;;;5.47;3.53;;;25.30;78.60;;;;;;5050720;28;20560;-74
2022/09/10 11:59:46;;;;;;;0.77;0.50;;;25.20;78.60;;;;;;5004900;28;20037;-73
2022/09/10 12:02:31;;;;;;;1.30;0.60;;;25.30;79.80;;;;;;5050374;28;20041;-74
2022/09/10 12:05:15;;;;;;;1.90;0.63;;;25.20;79.50;;;;;;5051880;28;20114;-74
2022/09/10 12:08:00;;;;;;;5.45;0.73;;;25.10;80.10;;;;;;5051870;28;20040;-73
2022/09/10 12:10:48;;;;;;;1.77;0.50;;;24.90;79.90;;;;;;5051548;28;20170;-72
2022/09/10 12:13:15;;;;;;;1.05;0.40;;;24.90;80.40;;;;;;5051873;28;20037;-74
2022/09/10 12:15:52;;;;;;;1.05;0.50;;;24.90;80.50;;;;;;5051722;28;20033;-74
2022/09/10 12:18:41;;;;;;;5.22;0.70;;;24.80;81.00;;;;;;5051610;28;20087;-75
2022/09/10 12:21:31;;;;;;;3.58;0.68;;;24.70;81.00;;;;;;5051274;28;20044;-73
2022/09/10 12:23:58;;;;;;;20.65;14.35;;;24.60;81.40;;;;;;5051444;28;20125;-73
2022/09/10 12:26:24;;;;;;;9.57;5.68;;;24.40;80.80;;;;;;5051243;28;20025;-73
2022/09/10 12:28:50;;;;;;;2.63;1.60;;;24.40;81.60;;;;;;5051813;28;20023;-73
2022/09/10 12:31:26;;;;;;;0.93;0.40;;;24.30;81.80;;;;;;5051437;28;20040;-74
2022/09/10 12:33:53;;;;;;;0.55;0.40;;;24.20;81.70;;;;;;5051317;28;20029;-74
2022/09/10 12:36:24;;;;;;;4.25;1.40;;;24.20;82.50;;;;;;5050574;28;20426;-74
2022/09/10 12:38:54;;;;;;;2.13;1.20;;;24.20;82.20;;;;;;5051419;28;20033;-75
2022/09/10 12:41:34;;;;;;;4.15;1.25;;;24.00;82.70;;;;;;5051704;28;20052;-73
2022/09/10 12:44:20;;;;;;;7.68;1.08;;;23.80;83.10;;;;;;5050082;28;20047;-75
2022/09/10 12:46:46;;;;;;;2.05;1.40;;;23.50;84.20;;;;;;5049975;28;20225;-75
2022/09/10 12:49:15;;;;;;;1.40;0.80;;;23.40;85.10;;;;;;5050217;28;20032;-74
2022/09/10 12:51:55;;;;;;;1.60;0.75;;;23.20;85.80;;;;;;5051085;28;20056;-74
2022/09/10 12:54:40;;;;;;;2.25;0.95;;;23.30;86.10;;;;;;5050893;28;20367;-74
2022/09/10 12:57:43;;;;;;;3.80;1.13;;;22.90;87.40;;;;;;5051107;28;20116;-73
2022/09/10 13:00:11;;;;;;;4.88;0.80;;;22.80;88.20;;;;;;5049856;28;20125;-74
2022/09/10 13:02:45;;;;;;;;;;;22.70;88.50;;;;;;5051249;28;20037;-74
2022/09/10 13:05:20;;;;;;;4.88;0.80;;;22.90;88.40;;;;;;5050135;28;19913;-74
2022/09/10 13:07:55;;;;;;;1.65;1.00;;;22.90;88.30;;;;;;5050769;28;20052;-74
2022/09/10 13:10:26;;;;;;;2.35;0.93;;;22.90;88.20;;;;;;5050993;28;20025;-74
2022/09/10 13:13:05;;;;;;;2.45;1.17;;;22.90;88.20;;;;;;5050674;28;20045;-74
2022/09/10 13:15:36;;;;;;;2.67;0.98;;;22.80;88.10;;;;;;5050827;28;20128;-73